createdAt,value
2024-02-14T00:01:48.754Z,3.99
2024-02-14T00:04:19.883Z,3.54
2024-02-14T00:06:50.450Z,4.02
2024-02-14T00:09:21.045Z,3.66
2024-02-14T00:11:51.715Z,3.71
2024-02-14T00:14:22.974Z,3.53
2024-02-14T00:16:56.233Z,3.42
2024-02-14T00:19:26.813Z,3.80
2024-02-14T00:21:57.340Z,3.94
2024-02-14T00:24:29.380Z,3.78
2024-02-14T00:27:01.866Z,3.72
2024-02-14T00:29:35.401Z,3.38
2024-02-14T00:32:08.975Z,3.50
2024-02-14T00:34:39.703Z,3.89
2024-02-14T00:37:10.479Z,3.86
2024-02-14T00:39:40.980Z,3.42
2024-02-14T00:42:11.570Z,3.43
2024-02-14T00:44:43.806Z,3.45
2024-02-14T00:47:16.897Z,3.50
2024-02-14T00:49:47.595Z,3.56
2024-02-14T00:52:18.381Z,3.38
2024-02-14T00:54:48.822Z,3.43
2024-02-14T00:57:19.553Z,3.20
2024-02-14T00:59:50.525Z,3.34
2024-02-14T01:02:23.680Z,3.22
2024-02-14T01:04:54.242Z,3.56
2024-02-14T01:07:25.096Z,3.63
2024-02-14T01:09:55.555Z,3.44
2024-02-14T01:12:26.077Z,3.48
2024-02-14T01:14:57.407Z,3.31
2024-02-14T01:17:30.595Z,3.46
2024-02-14T01:20:02.092Z,3.48
2024-02-14T01:22:32.685Z,3.55
2024-02-14T01:25:04.314Z,3.60
2024-02-14T01:27:35.132Z,3.80
2024-02-14T01:30:06.838Z,3.71
2024-02-14T01:32:40.581Z,3.68
2024-02-14T01:35:11.445Z,3.86
2024-02-14T01:37:41.966Z,3.88
2024-02-14T01:40:13.100Z,3.79
2024-02-14T01:42:44.856Z,3.94
2024-02-14T01:45:15.397Z,3.78
2024-02-14T01:47:48.830Z,3.96
2024-02-14T01:50:26.783Z,4.01
2024-02-14T01:52:57.445Z,3.86
2024-02-14T01:55:28.328Z,4.09
2024-02-14T01:57:59.602Z,3.96
2024-02-14T02:00:30.124Z,4.09
2024-02-14T02:03:03.487Z,4.47
2024-02-14T02:05:35.524Z,4.29
2024-02-14T02:08:07.146Z,4.41
2024-02-14T02:10:38.941Z,4.33
2024-02-14T02:13:10.258Z,4.23
2024-02-14T02:15:41.027Z,4.04
2024-02-14T02:18:14.758Z,4.05
2024-02-14T02:20:45.740Z,4.26
2024-02-14T02:23:18.915Z,4.14
2024-02-14T02:25:49.476Z,4.48
2024-02-14T02:28:20.472Z,4.43
2024-02-14T02:30:51.409Z,4.23
2024-02-14T02:33:23.147Z,4.18
2024-02-14T02:35:53.911Z,4.30
2024-02-14T02:38:27.316Z,4.33
2024-02-14T02:40:57.848Z,4.41
2024-02-14T02:43:28.322Z,4.06
2024-02-14T02:45:59.292Z,4.67
2024-02-14T02:48:29.999Z,4.49
2024-02-14T02:51:00.913Z,4.27
2024-02-14T02:53:34.174Z,4.20
2024-02-14T02:56:05.065Z,4.19
2024-02-14T02:58:35.565Z,4.28
2024-02-14T03:01:07.319Z,4.31
2024-02-14T03:03:40.080Z,4.03
2024-02-14T03:06:10.830Z,4.10
2024-02-14T03:08:46.399Z,4.35
2024-02-14T03:11:19.213Z,4.18
2024-02-14T03:13:50.076Z,3.96
2024-02-14T03:16:20.905Z,4.22
2024-02-14T03:18:51.446Z,4.32
2024-02-14T03:21:21.991Z,4.22
2024-02-14T03:23:55.487Z,4.12
2024-02-14T03:26:26.167Z,4.43
2024-02-14T03:28:56.787Z,4.28
2024-02-14T03:31:27.255Z,4.46
2024-02-14T03:33:57.895Z,4.33
2024-02-14T03:36:31.756Z,4.76
2024-02-14T03:39:05.729Z,4.36
2024-02-14T03:41:38.618Z,4.27
2024-02-14T03:44:10.685Z,4.51
2024-02-14T03:46:41.210Z,4.89
2024-02-14T03:49:11.849Z,4.47
2024-02-14T03:51:45.413Z,4.75
2024-02-14T03:54:21.266Z,4.30
2024-02-14T03:56:52.838Z,4.76
2024-02-14T03:59:26.473Z,4.84
2024-02-14T04:01:57.088Z,4.97
2024-02-14T04:04:27.666Z,4.62
2024-02-14T04:06:59.944Z,4.56
2024-02-14T04:09:33.216Z,4.56
2024-02-14T04:12:03.776Z,4.92
2024-02-14T04:14:34.312Z,4.68
2024-02-14T04:17:05.247Z,4.86
2024-02-14T04:19:35.841Z,4.82
2024-02-14T04:22:07.072Z,4.85
2024-02-14T04:24:40.426Z,5.18
2024-02-14T04:27:10.970Z,5.24
2024-02-14T04:29:41.545Z,5.06
2024-02-14T04:32:12.078Z,5.08
2024-02-14T04:34:45.714Z,5.22
2024-02-14T04:37:16.753Z,5.47
2024-02-14T04:39:49.824Z,5.55
2024-02-14T04:42:20.426Z,5.56
2024-02-14T04:44:50.987Z,5.28
2024-02-14T04:47:22.126Z,5.71
2024-02-14T04:49:52.956Z,5.46
2024-02-14T04:52:23.492Z,5.60
2024-02-14T04:54:57.409Z,5.41
2024-02-14T04:57:28.006Z,5.46
2024-02-14T04:59:58.647Z,5.05
2024-02-14T05:02:29.389Z,5.23
2024-02-14T05:04:59.946Z,5.47
2024-02-14T05:07:30.456Z,5.81
2024-02-14T05:10:03.985Z,5.39
2024-02-14T05:12:34.876Z,5.54
2024-02-14T05:15:05.594Z,5.01
2024-02-14T05:17:36.670Z,5.45
2024-02-14T05:20:10.518Z,5.35
2024-02-14T05:22:41.590Z,5.63
2024-02-14T05:25:14.976Z,5.49
2024-02-14T05:27:48.285Z,5.65
2024-02-14T05:30:18.969Z,5.44
2024-02-14T05:32:49.749Z,5.62
2024-02-14T05:35:21.276Z,5.25
2024-02-14T05:37:52.574Z,5.25
2024-02-14T05:40:25.763Z,5.47
2024-02-14T05:42:57.453Z,5.82
2024-02-14T05:45:28.886Z,5.69
2024-02-14T05:47:59.497Z,5.70
2024-02-14T05:50:30.243Z,5.86
2024-02-14T05:53:00.922Z,5.99
2024-02-14T05:55:33.990Z,5.74
2024-02-14T05:58:04.551Z,5.57
2024-02-14T06:00:37.522Z,6.17
2024-02-14T06:03:09.698Z,5.94
2024-02-14T06:05:40.259Z,6.28
2024-02-14T06:08:10.893Z,6.32
2024-02-14T06:10:44.013Z,6.47
2024-02-14T06:13:14.469Z,6.62
2024-02-14T06:15:45.011Z,6.74
2024-02-14T06:18:15.687Z,7.08
2024-02-14T06:20:47.316Z,6.58
2024-02-14T06:23:17.797Z,6.81
2024-02-14T06:25:50.866Z,6.59
2024-02-14T06:28:21.575Z,6.70
2024-02-14T06:30:52.217Z,6.19
2024-02-14T06:33:22.995Z,6.32
2024-02-14T06:35:53.860Z,6.21
2024-02-14T06:38:24.549Z,6.62
2024-02-14T06:40:58.045Z,6.42
2024-02-14T06:43:30.422Z,6.50
2024-02-14T06:46:01.009Z,5.95
2024-02-14T06:48:31.624Z,6.43
2024-02-14T06:51:02.309Z,6.74
2024-02-14T06:53:32.913Z,6.30
2024-02-14T06:56:06.058Z,6.25
2024-02-14T06:58:36.623Z,6.60
2024-02-14T07:01:07.391Z,6.60
2024-02-14T07:03:37.971Z,6.66
2024-02-14T07:06:09.169Z,6.89
2024-02-14T07:08:39.717Z,7.66
2024-02-14T07:11:13.247Z,7.41
2024-02-14T07:13:41.173Z,7.57
2024-02-14T07:16:14.426Z,7.84
2024-02-14T07:18:45.273Z,7.31
2024-02-14T07:21:15.927Z,7.91
2024-02-14T07:23:46.519Z,8.00
2024-02-14T07:26:19.609Z,8.14
2024-02-14T07:28:50.181Z,8.04
2024-02-14T07:31:20.652Z,8.27
2024-02-14T07:33:54.908Z,8.31
2024-02-14T07:36:25.632Z,7.88
2024-02-14T07:38:56.217Z,7.53
2024-02-14T07:41:29.341Z,7.83
2024-02-14T07:43:59.988Z,7.54
2024-02-14T07:46:31.913Z,7.52
2024-02-14T07:49:02.586Z,7.68
2024-02-14T07:51:37.911Z,7.38
2024-02-14T07:54:08.962Z,7.85
2024-02-14T07:56:42.712Z,7.78
2024-02-14T07:59:13.287Z,7.51
2024-02-14T08:01:44.831Z,8.11
2024-02-14T08:04:15.396Z,7.00
2024-02-14T08:06:46.062Z,7.30
2024-02-14T08:09:16.773Z,7.58
2024-02-14T08:11:49.987Z,7.68
2024-02-14T08:14:20.457Z,7.46
2024-02-14T08:16:50.925Z,7.55
2024-02-14T08:19:21.761Z,7.99
2024-02-14T08:21:52.937Z,7.37
2024-02-14T08:24:24.383Z,7.53
2024-02-14T08:26:57.696Z,7.40
2024-02-14T08:29:28.378Z,7.48
2024-02-14T08:31:58.939Z,7.72
2024-02-14T08:34:29.680Z,7.97
2024-02-14T08:37:00.310Z,8.14
2024-02-14T08:39:30.840Z,7.96
2024-02-14T08:42:09.087Z,7.99
2024-02-14T08:44:40.236Z,8.51
2024-02-14T08:47:11.114Z,7.66
2024-02-14T08:49:44.653Z,7.60
2024-02-14T08:52:15.297Z,8.14
2024-02-14T08:54:45.765Z,8.13
2024-02-14T08:57:19.637Z,7.80
2024-02-14T08:59:50.748Z,7.95
2024-02-14T09:02:21.901Z,7.84
2024-02-14T09:04:52.521Z,7.72
2024-02-14T09:07:23.042Z,7.88
2024-02-14T09:09:53.559Z,7.67
2024-02-14T09:12:26.729Z,7.61
2024-02-14T09:14:58.298Z,7.41
2024-02-14T09:17:29.075Z,7.77
2024-02-14T09:19:59.681Z,7.82
2024-02-14T09:22:30.897Z,7.53
2024-02-14T09:25:01.417Z,7.99
2024-02-14T09:27:36.588Z,7.45
2024-02-14T09:30:08.466Z,7.70
2024-02-14T09:32:39.221Z,7.48
2024-02-14T09:35:10.674Z,7.57
2024-02-14T09:37:42.062Z,7.42
2024-02-14T09:40:14.301Z,7.54
2024-02-14T09:42:55.865Z,7.70
2024-02-14T09:45:29.114Z,7.91
2024-02-14T09:48:01.420Z,7.92
2024-02-14T09:50:34.553Z,7.95
2024-02-14T09:53:09.001Z,7.42
2024-02-14T09:55:41.440Z,7.62
2024-02-14T09:58:14.678Z,6.99
2024-02-14T10:00:45.230Z,7.38
2024-02-14T10:03:17.383Z,7.24
2024-02-14T10:05:48.022Z,6.88
2024-02-14T10:08:18.776Z,6.96
2024-02-14T10:10:52.099Z,7.08
2024-02-14T10:13:26.659Z,7.26
2024-02-14T10:15:57.432Z,7.40
2024-02-14T10:18:28.290Z,7.08
2024-02-14T10:20:59.328Z,7.15
2024-02-14T10:23:31.672Z,7.03
2024-02-14T10:26:03.100Z,6.77
2024-02-14T10:28:43.667Z,6.93
2024-02-14T10:31:15.281Z,6.53
2024-02-14T10:33:46.230Z,6.66
2024-02-14T10:36:18.233Z,6.24
2024-02-14T10:38:51.261Z,6.54
2024-02-14T10:41:21.830Z,6.27
2024-02-14T10:43:55.057Z,6.21
2024-02-14T10:46:27.375Z,6.04
2024-02-14T10:49:02.494Z,5.77
2024-02-14T10:51:36.328Z,5.66
2024-02-14T10:54:11.015Z,5.74
2024-02-14T10:56:43.243Z,5.34
2024-02-14T10:59:21.084Z,5.43
2024-02-14T11:01:52.877Z,5.75
2024-02-14T11:04:24.833Z,5.59
2024-02-14T11:06:59.044Z,5.31
2024-02-14T11:09:36.954Z,5.51
2024-02-14T11:12:11.718Z,5.51
2024-02-14T11:14:46.759Z,5.48
2024-02-14T11:17:21.442Z,4.99
2024-02-14T11:19:53.164Z,5.04
2024-02-14T11:22:24.507Z,4.76
2024-02-14T11:24:55.350Z,4.96
2024-02-14T11:27:33.946Z,5.34
2024-02-14T11:30:10.200Z,4.87
2024-02-14T11:32:43.996Z,4.91
2024-02-14T11:35:15.993Z,5.09
2024-02-14T11:37:48.659Z,4.70
2024-02-14T11:40:19.116Z,4.88
2024-02-14T11:42:49.702Z,4.56
2024-02-14T11:45:22.990Z,4.34
2024-02-14T11:47:53.860Z,4.43
2024-02-14T11:50:24.921Z,4.30
2024-02-14T11:52:55.684Z,4.00
2024-02-14T11:55:33.488Z,3.80
2024-02-14T11:58:04.753Z,4.10
2024-02-14T12:00:39.211Z,3.82
2024-02-14T12:03:11.223Z,3.65
2024-02-14T12:05:42.850Z,3.53
2024-02-14T12:08:13.871Z,3.31
2024-02-14T12:10:48.174Z,3.42
2024-02-14T12:13:19.721Z,3.61
2024-02-14T12:15:53.843Z,3.48
2024-02-14T12:18:25.099Z,3.58
2024-02-14T12:20:56.893Z,3.42
2024-02-14T12:23:28.555Z,3.25
2024-02-14T12:26:05.862Z,3.43
2024-02-14T12:28:38.115Z,3.35
2024-02-14T12:31:11.222Z,3.40
2024-02-14T12:33:42.104Z,3.47
2024-02-14T12:36:13.098Z,3.83
2024-02-14T12:38:43.692Z,3.98
2024-02-14T12:41:14.261Z,3.90
2024-02-14T12:43:45.065Z,3.82
2024-02-14T12:46:18.157Z,3.59
2024-02-14T12:48:49.423Z,3.79
2024-02-14T12:51:20.009Z,3.89
2024-02-14T12:53:51.672Z,3.99
2024-02-14T12:56:22.189Z,3.94
2024-02-14T12:58:52.742Z,4.17
2024-02-14T13:01:26.469Z,3.88
2024-02-14T13:03:57.330Z,4.04
2024-02-14T13:06:28.036Z,4.06
2024-02-14T13:08:59.211Z,3.92
2024-02-14T13:11:29.722Z,3.95
2024-02-14T13:14:00.147Z,3.91
2024-02-14T13:16:33.348Z,3.98
2024-02-14T13:19:04.479Z,4.19
2024-02-14T13:21:35.393Z,3.99
2024-02-14T13:24:06.097Z,3.55
2024-02-14T13:26:36.705Z,3.72
2024-02-14T13:29:08.049Z,4.09
2024-02-14T13:31:41.186Z,3.86
2024-02-14T13:34:13.453Z,3.46
2024-02-14T13:36:44.352Z,3.41
2024-02-14T13:39:15.187Z,3.49
2024-02-14T13:41:46.229Z,3.92
2024-02-14T13:44:16.986Z,3.35
2024-02-14T13:46:51.698Z,3.10
2024-02-14T13:49:23.920Z,3.10
2024-02-14T13:51:55.368Z,2.84
2024-02-14T13:54:26.563Z,2.95
2024-02-14T13:56:57.928Z,2.71
2024-02-14T13:59:28.862Z,2.72
2024-02-14T14:02:02.273Z,2.61
2024-02-14T14:04:35.621Z,2.48
2024-02-14T14:07:06.951Z,2.24
2024-02-14T14:09:38.773Z,2.44
2024-02-14T14:12:09.934Z,2.31
2024-02-14T14:14:40.804Z,2.77
2024-02-14T14:17:14.305Z,2.32
2024-02-14T14:19:45.027Z,2.10
2024-02-14T14:22:16.085Z,2.33
2024-02-14T14:24:47.124Z,2.28
2024-02-14T14:27:17.919Z,2.05
2024-02-14T14:29:48.786Z,2.04
2024-02-14T14:32:22.309Z,1.93
2024-02-14T14:34:53.224Z,2.19
2024-02-14T14:37:24.425Z,1.93
2024-02-14T14:39:56.640Z,1.87
2024-02-14T14:42:27.382Z,1.80
2024-02-14T14:44:58.967Z,1.92
2024-02-14T14:47:32.351Z,1.73
2024-02-14T14:50:03.160Z,1.92
2024-02-14T14:52:33.843Z,1.68
2024-02-14T14:55:04.379Z,1.85
2024-02-14T14:57:41.503Z,1.94
2024-02-14T15:00:14.588Z,1.94
2024-02-14T15:02:48.223Z,1.97
2024-02-14T15:05:20.660Z,2.54
2024-02-14T15:07:51.669Z,2.27
2024-02-14T15:10:23.089Z,2.22
2024-02-14T15:12:54.154Z,2.43
2024-02-14T15:15:25.967Z,2.74
2024-02-14T15:17:59.427Z,2.67
2024-02-14T15:20:31.361Z,3.03
2024-02-14T15:23:02.452Z,2.81
2024-02-14T15:25:33.383Z,2.35
2024-02-14T15:28:14.037Z,2.25
2024-02-14T15:30:57.118Z,2.52
2024-02-14T15:33:30.637Z,2.70
2024-02-14T15:36:03.009Z,2.57
2024-02-14T15:38:34.009Z,2.76
2024-02-14T15:41:05.802Z,2.95
2024-02-14T15:43:36.645Z,2.96
2024-02-14T15:46:07.565Z,2.65
2024-02-14T15:48:42.626Z,2.72
2024-02-14T15:51:17.361Z,2.83
2024-02-14T15:53:48.124Z,2.78
2024-02-14T15:56:19.581Z,2.97
2024-02-14T15:58:50.211Z,4.03
2024-02-14T16:01:22.002Z,4.13
2024-02-14T16:03:55.308Z,4.03
2024-02-14T16:06:26.030Z,3.69
2024-02-14T16:09:00.092Z,3.62
2024-02-14T16:11:33.194Z,3.43
2024-02-14T16:14:03.878Z,3.25
2024-02-14T16:16:34.773Z,3.24
2024-02-14T16:19:08.190Z,3.60
2024-02-14T16:21:38.989Z,3.88
2024-02-14T16:24:09.873Z,3.51
2024-02-14T16:26:40.566Z,3.49
2024-02-14T16:29:11.342Z,3.53
2024-02-14T16:31:43.878Z,3.43
2024-02-14T16:34:19.066Z,3.83
2024-02-14T16:36:49.797Z,3.67
2024-02-14T16:39:31.020Z,3.73
2024-02-14T16:42:11.398Z,3.83
2024-02-14T16:44:42.540Z,3.85
2024-02-14T16:47:13.686Z,3.93
2024-02-14T16:49:47.166Z,3.91
2024-02-14T16:52:17.915Z,3.84
2024-02-14T16:54:48.664Z,3.98
2024-02-14T16:57:20.903Z,4.18
2024-02-14T16:59:51.970Z,4.07
2024-02-14T17:02:22.843Z,4.17
2024-02-14T17:04:56.700Z,4.11
2024-02-14T17:07:27.689Z,4.56
2024-02-14T17:10:00.041Z,4.43
2024-02-14T17:12:31.825Z,4.31
2024-02-14T17:15:03.141Z,4.23
2024-02-14T17:17:34.169Z,4.60
2024-02-14T17:20:08.485Z,4.45
2024-02-14T17:22:39.324Z,4.50
2024-02-14T17:25:11.824Z,4.68
2024-02-14T17:27:42.548Z,4.61
2024-02-14T17:30:13.898Z,4.80
2024-02-14T17:32:49.953Z,4.85
2024-02-14T17:35:23.500Z,5.09
2024-02-14T17:37:54.426Z,5.29
2024-02-14T17:40:24.986Z,5.04
2024-02-14T17:42:55.614Z,5.01
2024-02-14T17:45:26.766Z,5.01
2024-02-14T17:47:57.700Z,5.52
2024-02-14T17:50:31.115Z,5.30
2024-02-14T17:53:01.826Z,5.67
2024-02-14T17:55:32.462Z,5.69
2024-02-14T17:58:03.671Z,5.77
2024-02-14T18:00:34.839Z,6.08
2024-02-14T18:03:05.670Z,5.46
2024-02-14T18:05:42.317Z,6.15
2024-02-14T18:08:13.097Z,6.09
2024-02-14T18:10:44.965Z,5.77
2024-02-14T18:13:15.783Z,6.24
2024-02-14T18:15:46.536Z,6.09
2024-02-14T18:18:17.406Z,6.24
2024-02-14T18:20:50.905Z,6.55
2024-02-14T18:23:22.041Z,6.56
2024-02-14T18:25:53.795Z,6.38
2024-02-14T18:28:24.566Z,6.29
2024-02-14T18:30:55.087Z,6.39
2024-02-14T18:33:25.617Z,6.14
2024-02-14T18:35:59.091Z,6.41
2024-02-14T18:38:32.834Z,6.38
2024-02-14T18:41:03.531Z,6.42
2024-02-14T18:43:34.075Z,6.71
2024-02-14T18:46:05.806Z,6.59
2024-02-14T18:48:38.705Z,6.37
2024-02-14T18:51:11.880Z,6.50
2024-02-14T18:53:44.267Z,6.33
2024-02-14T18:56:15.106Z,6.98
2024-02-14T18:58:45.635Z,6.43
2024-02-14T19:01:24.296Z,6.85
2024-02-14T19:03:55.601Z,7.35
2024-02-14T19:06:29.418Z,6.81
2024-02-14T19:09:00.477Z,6.80
2024-02-14T19:11:31.311Z,6.43
2024-02-14T19:14:02.296Z,6.41
2024-02-14T19:16:33.297Z,6.72
2024-02-14T19:19:04.183Z,6.43
2024-02-14T19:21:37.524Z,6.71
2024-02-14T19:24:08.603Z,6.19
2024-02-14T19:26:39.195Z,6.38
2024-02-14T19:29:11.220Z,6.14
2024-02-14T19:31:41.873Z,6.10
2024-02-14T19:34:12.578Z,6.24
2024-02-14T19:36:45.841Z,6.45
2024-02-14T19:39:17.486Z,6.28
2024-02-14T19:41:48.531Z,6.65
2024-02-14T19:44:19.647Z,6.67
2024-02-14T19:46:51.170Z,6.80
2024-02-14T19:49:24.635Z,7.00
2024-02-14T19:51:58.774Z,7.35
2024-02-14T19:54:30.594Z,6.83
2024-02-14T19:57:01.258Z,7.22
2024-02-14T19:59:31.929Z,7.08
2024-02-14T20:02:02.477Z,6.67
2024-02-14T20:04:33.284Z,7.26
2024-02-14T20:07:08.887Z,7.83
2024-02-14T20:09:39.462Z,7.21
2024-02-14T20:12:11.343Z,7.53
2024-02-14T20:14:42.077Z,7.75
2024-02-14T20:17:14.516Z,7.88
2024-02-14T20:19:45.255Z,8.15
2024-02-14T20:22:19.088Z,7.85
2024-02-14T20:24:49.844Z,7.71
2024-02-14T20:27:20.524Z,7.79
2024-02-14T20:29:51.390Z,8.13
2024-02-14T20:32:22.052Z,7.97
2024-02-14T20:34:52.753Z,7.45
2024-02-14T20:37:26.249Z,7.39
2024-02-14T20:39:56.820Z,7.87
2024-02-14T20:42:27.609Z,7.62
2024-02-14T20:44:59.743Z,7.37
2024-02-14T20:47:30.542Z,7.70
2024-02-14T20:50:02.148Z,7.47
2024-02-14T20:52:35.737Z,7.28
2024-02-14T20:55:06.664Z,8.12
2024-02-14T20:57:37.357Z,8.17
2024-02-14T21:00:10.090Z,7.66
2024-02-14T21:02:40.983Z,8.45
2024-02-14T21:05:12.415Z,8.07
2024-02-14T21:07:45.689Z,8.43
2024-02-14T21:10:18.194Z,8.36
2024-02-14T21:12:50.253Z,8.49
2024-02-14T21:15:21.204Z,8.81
2024-02-14T21:17:51.829Z,8.79
2024-02-14T21:20:22.484Z,9.07
2024-02-14T21:22:56.309Z,8.84
2024-02-14T21:25:27.773Z,9.19
2024-02-14T21:27:58.526Z,8.99
2024-02-14T21:30:30.311Z,9.18
2024-02-14T21:33:02.332Z,8.87
2024-02-14T21:35:33.523Z,9.11
2024-02-14T21:38:06.722Z,9.20
2024-02-14T21:40:37.193Z,9.02
2024-02-14T21:43:07.654Z,9.46
2024-02-14T21:45:38.205Z,8.98
2024-02-14T21:48:09.352Z,8.78
2024-02-14T21:50:39.963Z,9.35
2024-02-14T21:53:13.176Z,9.40
2024-02-14T21:55:43.814Z,9.20
2024-02-14T21:58:15.537Z,9.46
2024-02-14T22:00:46.028Z,9.77
2024-02-14T22:03:16.736Z,9.64
2024-02-14T22:05:47.373Z,9.15
2024-02-14T22:08:21.031Z,9.73
2024-02-14T22:10:51.663Z,9.70
2024-02-14T22:13:22.245Z,9.88
2024-02-14T22:15:52.968Z,9.89
2024-02-14T22:18:23.640Z,9.95
2024-02-14T22:20:54.214Z,9.62
2024-02-14T22:23:27.548Z,9.41
2024-02-14T22:25:58.067Z,9.48
2024-02-14T22:28:35.648Z,9.55
2024-02-14T22:31:06.805Z,9.68
2024-02-14T22:33:37.629Z,9.53
2024-02-14T22:36:08.568Z,9.59
2024-02-14T22:38:41.786Z,9.79
2024-02-14T22:41:13.999Z,9.25
2024-02-14T22:43:46.629Z,9.80
2024-02-14T22:46:17.257Z,9.46
2024-02-14T22:48:48.156Z,9.25
2024-02-14T22:51:18.821Z,9.16
2024-02-14T22:53:52.808Z,9.30
2024-02-14T22:56:23.486Z,8.97
2024-02-14T22:58:54.008Z,9.07
2024-02-14T23:01:24.531Z,9.26
2024-02-14T23:03:55.267Z,9.27
2024-02-14T23:06:28.048Z,9.02
2024-02-14T23:09:01.241Z,8.89
2024-02-14T23:11:32.302Z,8.81
2024-02-14T23:14:02.762Z,9.15
2024-02-14T23:16:33.222Z,9.14
2024-02-14T23:19:04.489Z,9.34
2024-02-14T23:21:35.190Z,9.17
2024-02-14T23:24:08.615Z,9.30
2024-02-14T23:26:39.400Z,9.12
2024-02-14T23:29:10.029Z,9.34
2024-02-14T23:31:41.028Z,9.37
2024-02-14T23:34:12.603Z,9.73
2024-02-14T23:36:43.288Z,9.53
2024-02-14T23:39:16.953Z,9.72
2024-02-14T23:41:47.613Z,10.01
2024-02-14T23:44:18.260Z,9.85
2024-02-14T23:46:48.878Z,10.17
2024-02-14T23:49:19.922Z,10.37
2024-02-14T23:51:50.920Z,10.75
2024-02-14T23:54:24.272Z,10.89
2024-02-14T23:56:54.789Z,11.08
2024-02-14T23:59:27.313Z,11.45
